Ireland METAR reports

 

EIDW - Dublin Airport, Ireland
Distance from station: WNW 13km
Updated: 14/08/2018 20:30
Mostly cloudy
Mostly cloudy
 Wind from SW
Wind: SW 15 km/h
Temperature: 19°C
Dew Point: 15°C
Humidity: 78%
Barometer: 1014 hPa
Clouds: Mostly cloudy
Visibility: 10 km
Cloud details: Few Clouds 549 m
Mostly cloudy 610 m
Mostly cloudy 914 m
2018/08/14 19:30 EIDW 141930Z 23008KT 190V270 9999 FEW018 BKN020 BKN030 19/15 Q1014 WS RWY28 NOSIG
EIME - Casement (mil), Ireland
Distance from station: WSW 26km
Updated: 14/08/2018 20:00
Mostly cloudy
Mostly cloudy
 Wind from WSW
Wind: WSW 24 km/h
Temperature: 19°C
Dew Point: 15°C
Humidity: 78%
Barometer: 1014 hPa
Clouds: Mostly cloudy
Visibility: 10 km
Cloud details: Few Clouds 732 m
Partly cloudy 1219 m
Mostly cloudy 5486 m
2018/08/14 19:00 EIME 141900Z 24013KT 9999 FEW024 SCT040 BKN180 19/15 Q1014
EGAC - Belfast Harbour, United Kingdom
Distance from station: N 140km
Updated: 14/08/2018 20:20
Light rain, Overcast
Light rain, Overcast
 Wind from SW
Wind: SW 15 km/h
Temperature: 18°C
Dew Point: 16°C
Humidity: 88%
Barometer: 1012 hPa
Summary: Light rain
Clouds: Overcast
Visibility: 6 km
Cloud details: Partly cloudy 488 m
Overcast 610 m
2018/08/14 19:20 EGAC 141920Z AUTO 23008KT 6000 -RA SCT016/// OVC020/// 18/16 Q1012
 
EGAA - Belfast/Aldergro, United Kingdom
Distance from station: N 141km
Updated: 14/08/2018 20:20
Mostly cloudy
Mostly cloudy
 Wind from SW
Wind: SW 19 km/h
Temperature: 17°C
Dew Point: 16°C
Humidity: 94%
Barometer: 1012 hPa
Clouds: Mostly cloudy
Visibility: 10 km
Cloud details: Mostly cloudy 305 m
2018/08/14 19:20 EGAA 141920Z 23010KT 9999 BKN010 17/16 Q1012
EIWF - Waterford Arpt, Ireland
Distance from station: SSW 148km
Updated: 14/08/2018 20:00
Clear
Clear
 Wind from W
Wind: W 17 km/h
Temperature: 17°C
Dew Point: 15°C
Humidity: 88%
Barometer: 1016 hPa
Summary: Clear
Visibility: greater than 10 km
2018/08/14 19:00 EIWF 141900Z 26009KT 210V310 CAVOK 17/15 Q1016
EIKN - Connaught Apt, Ireland
Distance from station: WNW 191km
Updated: 14/08/2018 20:00
Light rain, Drizzle, Overcast
Light rain, Drizzle, Overcast
 Wind from SSW
Wind: SSW 22 km/h
Temperature: 15°C
Dew Point: 15°C
Humidity: 100%
Barometer: 1013 hPa
Summary: Light rain, Drizzle
Clouds: Overcast
Visibility: 4 km
Cloud details: Overcast 61 m
2018/08/14 19:00 EIKN 141900Z 21012KT 180V240 4000 -RADZ OVC002 15/15 Q1013 TEMPO 0300 OVC001
 
EISG - Sligo Arpt, Ireland
Distance from station: WNW 195km
Updated: 14/08/2018 19:00
NOT Current
Overcast
Overcast
 Wind from SW
Wind: SW 9 km/h
Temperature: 17°C
Dew Point: 16°C
Humidity: 94%
Barometer: 1012 hPa
Clouds: Overcast
Visibility: 8 km
Cloud details: Mostly cloudy 305 m
Overcast 792 m
2018/08/14 18:00 EISG 141800Z 22005KT 8000 BKN010 OVC026 17/16 Q1012
EGAE - Eglinton/Londond, United Kingdom
Distance from station: NNW 198km
Updated: 14/08/2018 20:20
Mostly cloudy
Mostly cloudy
 Wind from SW
Wind: SW 19 km/h
Temperature: 17°C
Dew Point: 16°C
Humidity: 94%
Barometer: 1011 hPa
Clouds: Mostly cloudy
Visibility: 10 km
Cloud details: Few Clouds 274 m
Partly cloudy 518 m
Mostly cloudy 1372 m
2018/08/14 19:20 EGAE 141920Z 23010KT 9999 FEW009 SCT017 BKN045 17/16 Q1011
EINN - Shannon Airport, Ireland
Distance from station: WSW 204km
Updated: 14/08/2018 20:30
Mostly cloudy
Mostly cloudy
 Wind from SW
Wind: SW 17 km/h
Temperature: 18°C
Dew Point: 16°C
Humidity: 88%
Barometer: 1015 hPa
Clouds: Mostly cloudy
Visibility: 10 km
Cloud details: Partly cloudy 396 m
Mostly cloudy 518 m
2018/08/14 19:30 EINN 141930Z 22009KT 9999 SCT013 BKN017 18/16 Q1015 NOSIG
 
EICK - Cork Arpt/Corcai, Ireland
Distance from station: SW 234km
Updated: 14/08/2018 20:30
Light drizzle, Mostly cloudy
Light drizzle, Mostly cloudy
 Wind from SW
Wind: SW 19 km/h
Temperature: 16°C
Dew Point: 16°C
Humidity: 100%
Barometer: 1017 hPa
Summary: Light Drizzle
Clouds: Mostly cloudy
Visibility: 5 km
Cloud details: Partly cloudy 91 m
Mostly cloudy 122 m
2018/08/14 19:30 EICK 141930Z 22010KT 4500 -DZ SCT003 BKN004 16/16 Q1017 TEMPO 3000